sensor_id;sensor_type;location;lat;lon;timestamp;P1;durP1;ratioP1;P2;durP2;ratioP2
8458;SDS011;4266;48.816;9.154;2024-03-17T00:01:10;12.17;;;9.60;;
8458;SDS011;4266;48.816;9.154;2024-03-17T00:03:35;10.00;;;8.93;;
8458;SDS011;4266;48.816;9.154;2024-03-17T00:06:01;11.80;;;10.27;;
8458;SDS011;4266;48.816;9.154;2024-03-17T00:08:27;11.17;;;9.50;;
8458;SDS011;4266;48.816;9.154;2024-03-17T00:10:52;10.20;;;9.17;;
8458;SDS011;4266;48.816;9.154;2024-03-17T00:13:18;10.00;;;8.17;;
8458;SDS011;4266;48.816;9.154;2024-03-17T00:15:43;9.15;;;8.30;;
8458;SDS011;4266;48.816;9.154;2024-03-17T00:18:10;13.13;;;8.50;;
8458;SDS011;4266;48.816;9.154;2024-03-17T00:20:36;9.37;;;8.47;;
8458;SDS011;4266;48.816;9.154;2024-03-17T00:23:01;9.27;;;8.30;;
8458;SDS011;4266;48.816;9.154;2024-03-17T00:25:26;12.20;;;10.05;;
8458;SDS011;4266;48.816;9.154;2024-03-17T00:30:17;10.37;;;9.27;;
8458;SDS011;4266;48.816;9.154;2024-03-17T00:32:43;13.83;;;9.43;;
8458;SDS011;4266;48.816;9.154;2024-03-17T00:35:09;12.80;;;9.53;;
8458;SDS011;4266;48.816;9.154;2024-03-17T00:37:34;13.95;;;9.80;;
8458;SDS011;4266;48.816;9.154;2024-03-17T00:40:01;13.60;;;9.50;;
8458;SDS011;4266;48.816;9.154;2024-03-17T00:44:50;9.60;;;8.40;;
8458;SDS011;4266;48.816;9.154;2024-03-17T00:47:16;10.90;;;8.60;;
8458;SDS011;4266;48.816;9.154;2024-03-17T00:49:42;11.20;;;9.47;;
8458;SDS011;4266;48.816;9.154;2024-03-17T00:52:08;10.27;;;9.27;;
8458;SDS011;4266;48.816;9.154;2024-03-17T00:54:34;11.07;;;9.70;;
8458;SDS011;4266;48.816;9.154;2024-03-17T00:57:00;11.23;;;9.73;;
8458;SDS011;4266;48.816;9.154;2024-03-17T00:59:26;12.13;;;9.10;;
8458;SDS011;4266;48.816;9.154;2024-03-17T01:01:51;11.15;;;10.00;;
8458;SDS011;4266;48.816;9.154;2024-03-17T01:04:18;11.10;;;9.40;;
8458;SDS011;4266;48.816;9.154;2024-03-17T01:06:43;11.80;;;8.70;;
8458;SDS011;4266;48.816;9.154;2024-03-17T01:09:09;12.90;;;9.43;;
8458;SDS011;4266;48.816;9.154;2024-03-17T01:11:35;10.90;;;9.40;;
8458;SDS011;4266;48.816;9.154;2024-03-17T01:14:01;12.23;;;9.27;;
8458;SDS011;4266;48.816;9.154;2024-03-17T01:16:27;10.90;;;9.27;;
8458;SDS011;4266;48.816;9.154;2024-03-17T01:18:53;10.30;;;7.73;;
8458;SDS011;4266;48.816;9.154;2024-03-17T01:21:19;11.33;;;8.67;;
8458;SDS011;4266;48.816;9.154;2024-03-17T01:23:47;9.13;;;7.93;;
8458;SDS011;4266;48.816;9.154;2024-03-17T01:26:11;9.60;;;8.57;;
8458;SDS011;4266;48.816;9.154;2024-03-17T01:28:36;9.50;;;8.60;;
8458;SDS011;4266;48.816;9.154;2024-03-17T01:31:05;10.10;;;9.00;;
8458;SDS011;4266;48.816;9.154;2024-03-17T01:33:28;10.50;;;9.43;;
8458;SDS011;4266;48.816;9.154;2024-03-17T01:35:54;10.70;;;8.93;;
8458;SDS011;4266;48.816;9.154;2024-03-17T01:38:20;13.70;;;8.90;;
8458;SDS011;4266;48.816;9.154;2024-03-17T01:40:45;10.70;;;8.70;;
8458;SDS011;4266;48.816;9.154;2024-03-17T01:43:11;11.25;;;9.40;;
8458;SDS011;4266;48.816;9.154;2024-03-17T01:45:37;10.00;;;8.95;;
8458;SDS011;4266;48.816;9.154;2024-03-17T01:48:03;10.25;;;8.25;;
8458;SDS011;4266;48.816;9.154;2024-03-17T01:50:31;9.45;;;7.80;;
8458;SDS011;4266;48.816;9.154;2024-03-17T01:52:58;9.87;;;8.53;;
8458;SDS011;4266;48.816;9.154;2024-03-17T01:55:23;12.63;;;9.60;;
8458;SDS011;4266;48.816;9.154;2024-03-17T01:57:50;11.00;;;9.60;;
8458;SDS011;4266;48.816;9.154;2024-03-17T02:00:15;11.47;;;9.17;;
8458;SDS011;4266;48.816;9.154;2024-03-17T02:02:41;9.43;;;8.53;;
8458;SDS011;4266;48.816;9.154;2024-03-17T02:05:08;9.97;;;8.50;;
8458;SDS011;4266;48.816;9.154;2024-03-17T02:07:34;11.73;;;8.87;;
8458;SDS011;4266;48.816;9.154;2024-03-17T02:10:00;9.07;;;8.17;;
8458;SDS011;4266;48.816;9.154;2024-03-17T02:12:25;10.93;;;8.80;;
8458;SDS011;4266;48.816;9.154;2024-03-17T02:14:51;10.50;;;8.07;;
8458;SDS011;4266;48.816;9.154;2024-03-17T02:17:17;13.57;;;8.23;;
8458;SDS011;4266;48.816;9.154;2024-03-17T02:19:42;10.57;;;8.23;;
8458;SDS011;4266;48.816;9.154;2024-03-17T02:22:12;8.80;;;7.83;;
8458;SDS011;4266;48.816;9.154;2024-03-17T02:24:34;10.37;;;8.07;;
8458;SDS011;4266;48.816;9.154;2024-03-17T02:26:59;9.43;;;8.53;;
8458;SDS011;4266;48.816;9.154;2024-03-17T02:29:26;9.83;;;8.60;;
8458;SDS011;4266;48.816;9.154;2024-03-17T02:31:52;12.23;;;8.77;;
8458;SDS011;4266;48.816;9.154;2024-03-17T02:34:18;9.47;;;8.10;;
8458;SDS011;4266;48.816;9.154;2024-03-17T02:36:44;10.40;;;9.07;;
8458;SDS011;4266;48.816;9.154;2024-03-17T02:39:10;10.57;;;9.47;;
8458;SDS011;4266;48.816;9.154;2024-03-17T02:41:43;10.67;;;9.43;;
8458;SDS011;4266;48.816;9.154;2024-03-17T02:44:08;10.97;;;9.77;;
8458;SDS011;4266;48.816;9.154;2024-03-17T02:46:35;10.53;;;9.13;;
8458;SDS011;4266;48.816;9.154;2024-03-17T02:49:02;10.13;;;9.13;;
8458;SDS011;4266;48.816;9.154;2024-03-17T02:51:28;12.63;;;8.60;;
8458;SDS011;4266;48.816;9.154;2024-03-17T02:53:53;9.10;;;8.20;;
8458;SDS011;4266;48.816;9.154;2024-03-17T02:56:20;11.80;;;8.17;;
8458;SDS011;4266;48.816;9.154;2024-03-17T02:58:46;11.97;;;7.20;;
8458;SDS011;4266;48.816;9.154;2024-03-17T03:01:12;8.80;;;7.70;;
8458;SDS011;4266;48.816;9.154;2024-03-17T03:03:38;9.17;;;8.23;;
8458;SDS011;4266;48.816;9.154;2024-03-17T03:06:04;9.60;;;7.83;;
8458;SDS011;4266;48.816;9.154;2024-03-17T03:08:30;8.17;;;6.40;;
8458;SDS011;4266;48.816;9.154;2024-03-17T03:10:55;7.77;;;6.87;;
8458;SDS011;4266;48.816;9.154;2024-03-17T03:13:21;7.20;;;6.47;;
8458;SDS011;4266;48.816;9.154;2024-03-17T03:15:47;9.33;;;7.60;;
8458;SDS011;4266;48.816;9.154;2024-03-17T03:18:14;9.53;;;7.10;;
8458;SDS011;4266;48.816;9.154;2024-03-17T03:20:40;8.57;;;7.37;;
8458;SDS011;4266;48.816;9.154;2024-03-17T03:23:05;11.73;;;8.30;;
8458;SDS011;4266;48.816;9.154;2024-03-17T03:25:31;10.77;;;8.77;;
8458;SDS011;4266;48.816;9.154;2024-03-17T03:27:57;9.93;;;8.27;;
8458;SDS011;4266;48.816;9.154;2024-03-17T03:30:24;12.60;;;9.33;;
8458;SDS011;4266;48.816;9.154;2024-03-17T03:32:50;12.60;;;10.73;;
8458;SDS011;4266;48.816;9.154;2024-03-17T03:35:15;14.93;;;10.33;;
8458;SDS011;4266;48.816;9.154;2024-03-17T03:37:41;11.80;;;10.10;;
8458;SDS011;4266;48.816;9.154;2024-03-17T03:40:08;12.17;;;9.27;;
8458;SDS011;4266;48.816;9.154;2024-03-17T03:42:35;11.60;;;10.37;;
8458;SDS011;4266;48.816;9.154;2024-03-17T03:45:01;11.07;;;10.00;;
8458;SDS011;4266;48.816;9.154;2024-03-17T03:47:27;12.23;;;9.63;;
8458;SDS011;4266;48.816;9.154;2024-03-17T03:49:52;11.73;;;10.13;;
8458;SDS011;4266;48.816;9.154;2024-03-17T03:52:18;10.47;;;9.20;;
8458;SDS011;4266;48.816;9.154;2024-03-17T03:54:44;10.60;;;9.23;;
8458;SDS011;4266;48.816;9.154;2024-03-17T03:57:09;12.97;;;10.30;;
8458;SDS011;4266;48.816;9.154;2024-03-17T03:59:35;10.77;;;9.57;;
8458;SDS011;4266;48.816;9.154;2024-03-17T04:02:02;10.30;;;9.27;;
8458;SDS011;4266;48.816;9.154;2024-03-17T04:04:28;10.47;;;9.43;;
8458;SDS011;4266;48.816;9.154;2024-03-17T04:06:53;10.17;;;9.17;;
8458;SDS011;4266;48.816;9.154;2024-03-17T04:09:19;11.20;;;9.77;;
8458;SDS011;4266;48.816;9.154;2024-03-17T04:11:44;9.90;;;8.90;;
8458;SDS011;4266;48.816;9.154;2024-03-17T04:14:10;10.43;;;9.00;;
8458;SDS011;4266;48.816;9.154;2024-03-17T04:16:37;9.10;;;8.20;;
8458;SDS011;4266;48.816;9.154;2024-03-17T04:19:02;9.83;;;8.93;;
8458;SDS011;4266;48.816;9.154;2024-03-17T04:21:28;11.13;;;8.60;;
8458;SDS011;4266;48.816;9.154;2024-03-17T04:23:54;10.57;;;8.40;;
8458;SDS011;4266;48.816;9.154;2024-03-17T04:26:20;9.93;;;8.90;;
8458;SDS011;4266;48.816;9.154;2024-03-17T04:28:45;10.90;;;9.00;;
8458;SDS011;4266;48.816;9.154;2024-03-17T04:31:12;8.73;;;7.93;;
8458;SDS011;4266;48.816;9.154;2024-03-17T04:33:38;9.93;;;7.93;;
8458;SDS011;4266;48.816;9.154;2024-03-17T04:36:04;8.80;;;7.97;;
8458;SDS011;4266;48.816;9.154;2024-03-17T04:38:30;9.30;;;8.37;;
8458;SDS011;4266;48.816;9.154;2024-03-17T04:40:56;8.70;;;7.90;;
8458;SDS011;4266;48.816;9.154;2024-03-17T04:43:22;9.90;;;7.10;;
8458;SDS011;4266;48.816;9.154;2024-03-17T04:45:48;8.40;;;7.60;;
8458;SDS011;4266;48.816;9.154;2024-03-17T04:48:15;8.80;;;8.00;;
8458;SDS011;4266;48.816;9.154;2024-03-17T04:50:40;9.43;;;8.47;;
8458;SDS011;4266;48.816;9.154;2024-03-17T04:53:06;10.47;;;8.67;;
8458;SDS011;4266;48.816;9.154;2024-03-17T04:55:32;10.73;;;9.20;;
8458;SDS011;4266;48.816;9.154;2024-03-17T04:57:58;9.57;;;8.67;;
8458;SDS011;4266;48.816;9.154;2024-03-17T05:00:24;11.00;;;8.70;;
8458;SDS011;4266;48.816;9.154;2024-03-17T05:02:50;12.57;;;9.00;;
8458;SDS011;4266;48.816;9.154;2024-03-17T05:05:16;10.23;;;8.53;;
8458;SDS011;4266;48.816;9.154;2024-03-17T05:07:42;12.70;;;8.50;;
8458;SDS011;4266;48.816;9.154;2024-03-17T05:10:07;10.67;;;8.60;;
8458;SDS011;4266;48.816;9.154;2024-03-17T05:12:33;8.93;;;8.00;;
8458;SDS011;4266;48.816;9.154;2024-03-17T05:14:59;9.50;;;8.37;;
8458;SDS011;4266;48.816;9.154;2024-03-17T05:17:24;9.60;;;7.83;;
8458;SDS011;4266;48.816;9.154;2024-03-17T05:19:51;10.63;;;8.43;;
8458;SDS011;4266;48.816;9.154;2024-03-17T05:22:16;10.53;;;9.13;;
8458;SDS011;4266;48.816;9.154;2024-03-17T05:24:42;9.17;;;8.30;;
8458;SDS011;4266;48.816;9.154;2024-03-17T05:27:08;10.43;;;8.70;;
8458;SDS011;4266;48.816;9.154;2024-03-17T05:29:33;9.43;;;8.47;;
8458;SDS011;4266;48.816;9.154;2024-03-17T05:31:59;11.07;;;8.63;;
8458;SDS011;4266;48.816;9.154;2024-03-17T05:34:25;9.40;;;7.97;;
8458;SDS011;4266;48.816;9.154;2024-03-17T05:36:51;10.57;;;9.47;;
8458;SDS011;4266;48.816;9.154;2024-03-17T05:39:16;11.13;;;10.10;;
8458;SDS011;4266;48.816;9.154;2024-03-17T05:41:42;10.27;;;9.23;;
8458;SDS011;4266;48.816;9.154;2024-03-17T05:44:08;11.77;;;10.07;;
8458;SDS011;4266;48.816;9.154;2024-03-17T05:46:33;14.40;;;10.13;;
8458;SDS011;4266;48.816;9.154;2024-03-17T05:48:59;16.77;;;10.60;;
8458;SDS011;4266;48.816;9.154;2024-03-17T05:51:25;15.63;;;10.63;;
8458;SDS011;4266;48.816;9.154;2024-03-17T05:53:50;11.80;;;10.70;;
8458;SDS011;4266;48.816;9.154;2024-03-17T05:56:16;11.43;;;10.23;;
8458;SDS011;4266;48.816;9.154;2024-03-17T05:58:42;14.03;;;10.60;;
8458;SDS011;4266;48.816;9.154;2024-03-17T06:01:08;11.37;;;10.20;;
8458;SDS011;4266;48.816;9.154;2024-03-17T06:03:34;17.77;;;10.97;;
8458;SDS011;4266;48.816;9.154;2024-03-17T06:06:00;13.33;;;11.47;;
8458;SDS011;4266;48.816;9.154;2024-03-17T06:08:25;17.73;;;12.13;;
8458;SDS011;4266;48.816;9.154;2024-03-17T06:10:51;24.27;;;12.50;;
8458;SDS011;4266;48.816;9.154;2024-03-17T06:13:17;22.87;;;11.87;;
8458;SDS011;4266;48.816;9.154;2024-03-17T06:15:43;12.70;;;11.30;;
8458;SDS011;4266;48.816;9.154;2024-03-17T06:18:09;35.00;;;12.50;;
8458;SDS011;4266;48.816;9.154;2024-03-17T06:20:34;12.60;;;10.73;;
8458;SDS011;4266;48.816;9.154;2024-03-17T06:23:00;11.43;;;10.43;;
8458;SDS011;4266;48.816;9.154;2024-03-17T06:25:26;10.73;;;9.83;;
8458;SDS011;4266;48.816;9.154;2024-03-17T06:27:52;12.67;;;11.47;;
8458;SDS011;4266;48.816;9.154;2024-03-17T06:30:17;11.77;;;10.70;;
8458;SDS011;4266;48.816;9.154;2024-03-17T06:32:43;11.00;;;10.00;;
8458;SDS011;4266;48.816;9.154;2024-03-17T06:35:09;10.43;;;9.53;;
8458;SDS011;4266;48.816;9.154;2024-03-17T06:37:35;10.93;;;9.93;;
8458;SDS011;4266;48.816;9.154;2024-03-17T06:40:02;11.07;;;10.17;;
8458;SDS011;4266;48.816;9.154;2024-03-17T06:42:27;10.53;;;9.53;;
8458;SDS011;4266;48.816;9.154;2024-03-17T06:44:53;11.90;;;10.70;;
8458;SDS011;4266;48.816;9.154;2024-03-17T06:47:18;11.40;;;10.40;;
8458;SDS011;4266;48.816;9.154;2024-03-17T06:49:44;13.10;;;10.50;;
8458;SDS011;4266;48.816;9.154;2024-03-17T06:52:10;11.77;;;10.60;;
8458;SDS011;4266;48.816;9.154;2024-03-17T06:54:36;12.43;;;10.77;;
8458;SDS011;4266;48.816;9.154;2024-03-17T06:57:02;11.80;;;10.80;;
8458;SDS011;4266;48.816;9.154;2024-03-17T06:59:28;11.67;;;10.67;;
8458;SDS011;4266;48.816;9.154;2024-03-17T07:01:54;11.10;;;10.10;;
8458;SDS011;4266;48.816;9.154;2024-03-17T07:04:20;11.77;;;10.57;;
8458;SDS011;4266;48.816;9.154;2024-03-17T07:06:46;11.43;;;10.43;;
8458;SDS011;4266;48.816;9.154;2024-03-17T07:09:12;11.93;;;10.73;;
8458;SDS011;4266;48.816;9.154;2024-03-17T07:11:39;12.00;;;10.90;;
8458;SDS011;4266;48.816;9.154;2024-03-17T07:14:06;13.60;;;12.40;;
8458;SDS011;4266;48.816;9.154;2024-03-17T07:16:32;12.77;;;11.67;;
8458;SDS011;4266;48.816;9.154;2024-03-17T07:19:01;12.20;;;11.20;;
8458;SDS011;4266;48.816;9.154;2024-03-17T07:21:26;10.63;;;9.73;;
8458;SDS011;4266;48.816;9.154;2024-03-17T07:23:53;11.03;;;10.13;;
8458;SDS011;4266;48.816;9.154;2024-03-17T07:26:19;11.10;;;10.20;;
8458;SDS011;4266;48.816;9.154;2024-03-17T07:28:45;13.17;;;10.00;;
8458;SDS011;4266;48.816;9.154;2024-03-17T07:31:11;10.60;;;9.70;;
8458;SDS011;4266;48.816;9.154;2024-03-17T07:33:37;10.13;;;9.33;;
8458;SDS011;4266;48.816;9.154;2024-03-17T07:36:03;10.17;;;9.27;;
8458;SDS011;4266;48.816;9.154;2024-03-17T07:38:29;10.43;;;9.47;;
8458;SDS011;4266;48.816;9.154;2024-03-17T07:40:57;10.57;;;9.60;;
8458;SDS011;4266;48.816;9.154;2024-03-17T07:43:23;9.93;;;9.18;;
8458;SDS011;4266;48.816;9.154;2024-03-17T07:48:23;10.85;;;9.95;;
8458;SDS011;4266;48.816;9.154;2024-03-17T07:53:22;10.88;;;9.98;;
8458;SDS011;4266;48.816;9.154;2024-03-17T07:56:21;11.05;;;10.13;;
8458;SDS011;4266;48.816;9.154;2024-03-17T07:58:31;11.70;;;10.60;;
8458;SDS011;4266;48.816;9.154;2024-03-17T08:00:56;10.95;;;10.05;;
8458;SDS011;4266;48.816;9.154;2024-03-17T08:03:22;12.00;;;11.00;;
8458;SDS011;4266;48.816;9.154;2024-03-17T08:05:49;11.12;;;10.25;;
8458;SDS011;4266;48.816;9.154;2024-03-17T08:08:15;12.00;;;10.90;;
8458;SDS011;4266;48.816;9.154;2024-03-17T08:10:41;12.10;;;11.18;;
8458;SDS011;4266;48.816;9.154;2024-03-17T08:13:07;12.68;;;11.57;;
8458;SDS011;4266;48.816;9.154;2024-03-17T08:15:32;11.98;;;11.00;;
8458;SDS011;4266;48.816;9.154;2024-03-17T08:17:58;13.23;;;12.10;;
8458;SDS011;4266;48.816;9.154;2024-03-17T08:20:24;13.27;;;11.93;;
8458;SDS011;4266;48.816;9.154;2024-03-17T08:22:50;13.48;;;12.32;;
8458;SDS011;4266;48.816;9.154;2024-03-17T08:25:15;13.13;;;12.05;;
8458;SDS011;4266;48.816;9.154;2024-03-17T08:27:41;14.20;;;12.83;;
8458;SDS011;4266;48.816;9.154;2024-03-17T08:30:08;13.77;;;12.57;;
8458;SDS011;4266;48.816;9.154;2024-03-17T08:32:34;13.17;;;12.07;;
8458;SDS011;4266;48.816;9.154;2024-03-17T08:35:00;13.70;;;12.30;;
8458;SDS011;4266;48.816;9.154;2024-03-17T08:37:26;12.97;;;11.90;;
8458;SDS011;4266;48.816;9.154;2024-03-17T08:39:52;16.07;;;11.70;;
8458;SDS011;4266;48.816;9.154;2024-03-17T08:42:17;13.10;;;12.00;;
8458;SDS011;4266;48.816;9.154;2024-03-17T08:44:45;12.47;;;11.30;;
8458;SDS011;4266;48.816;9.154;2024-03-17T08:47:09;12.57;;;11.53;;
8458;SDS011;4266;48.816;9.154;2024-03-17T08:49:35;12.37;;;11.27;;
8458;SDS011;4266;48.816;9.154;2024-03-17T08:52:00;11.63;;;10.63;;
8458;SDS011;4266;48.816;9.154;2024-03-17T08:54:26;12.70;;;11.35;;
8458;SDS011;4266;48.816;9.154;2024-03-17T08:56:52;12.17;;;11.07;;
8458;SDS011;4266;48.816;9.154;2024-03-17T08:59:18;11.93;;;10.73;;
8458;SDS011;4266;48.816;9.154;2024-03-17T09:01:44;11.23;;;10.27;;
8458;SDS011;4266;48.816;9.154;2024-03-17T09:04:10;10.82;;;9.90;;
8458;SDS011;4266;48.816;9.154;2024-03-17T09:06:35;11.12;;;10.23;;
8458;SDS011;4266;48.816;9.154;2024-03-17T09:09:02;11.18;;;10.27;;
8458;SDS011;4266;48.816;9.154;2024-03-17T09:11:28;10.77;;;9.90;;
8458;SDS011;4266;48.816;9.154;2024-03-17T09:13:53;11.23;;;10.15;;
8458;SDS011;4266;48.816;9.154;2024-03-17T09:16:19;11.57;;;9.38;;
8458;SDS011;4266;48.816;9.154;2024-03-17T09:18:45;10.18;;;9.40;;
8458;SDS011;4266;48.816;9.154;2024-03-17T09:21:11;11.38;;;9.23;;
8458;SDS011;4266;48.816;9.154;2024-03-17T09:23:37;9.60;;;8.77;;
8458;SDS011;4266;48.816;9.154;2024-03-17T09:26:03;9.35;;;8.55;;
8458;SDS011;4266;48.816;9.154;2024-03-17T09:28:30;9.93;;;9.02;;
8458;SDS011;4266;48.816;9.154;2024-03-17T09:30:55;9.35;;;8.57;;
8458;SDS011;4266;48.816;9.154;2024-03-17T09:33:22;9.30;;;8.40;;
8458;SDS011;4266;48.816;9.154;2024-03-17T09:35:58;9.23;;;8.45;;
8458;SDS011;4266;48.816;9.154;2024-03-17T09:38:28;9.15;;;8.43;;
8458;SDS011;4266;48.816;9.154;2024-03-17T09:40:54;8.95;;;8.15;;
8458;SDS011;4266;48.816;9.154;2024-03-17T09:43:20;7.97;;;7.37;;
8458;SDS011;4266;48.816;9.154;2024-03-17T09:45:45;8.35;;;7.65;;
8458;SDS011;4266;48.816;9.154;2024-03-17T09:48:14;7.32;;;6.72;;
8458;SDS011;4266;48.816;9.154;2024-03-17T09:50:36;7.15;;;6.65;;
8458;SDS011;4266;48.816;9.154;2024-03-17T09:53:02;7.18;;;6.50;;
8458;SDS011;4266;48.816;9.154;2024-03-17T09:55:28;6.10;;;5.60;;
8458;SDS011;4266;48.816;9.154;2024-03-17T09:57:54;6.25;;;5.65;;
8458;SDS011;4266;48.816;9.154;2024-03-17T10:00:20;7.03;;;5.07;;
8458;SDS011;4266;48.816;9.154;2024-03-17T10:02:47;5.97;;;5.45;;
8458;SDS011;4266;48.816;9.154;2024-03-17T10:05:18;5.90;;;5.30;;
8458;SDS011;4266;48.816;9.154;2024-03-17T10:07:43;6.53;;;5.93;;
8458;SDS011;4266;48.816;9.154;2024-03-17T10:10:11;6.70;;;5.85;;
8458;SDS011;4266;48.816;9.154;2024-03-17T10:12:37;5.82;;;5.32;;
8458;SDS011;4266;48.816;9.154;2024-03-17T10:15:03;6.05;;;5.65;;
8458;SDS011;4266;48.816;9.154;2024-03-17T10:17:30;5.65;;;5.25;;
8458;SDS011;4266;48.816;9.154;2024-03-17T10:20:10;4.80;;;4.35;;
8458;SDS011;4266;48.816;9.154;2024-03-17T10:22:21;4.78;;;4.37;;
8458;SDS011;4266;48.816;9.154;2024-03-17T10:24:48;5.00;;;4.60;;
8458;SDS011;4266;48.816;9.154;2024-03-17T10:27:13;5.40;;;4.78;;
8458;SDS011;4266;48.816;9.154;2024-03-17T10:29:40;5.53;;;5.03;;
8458;SDS011;4266;48.816;9.154;2024-03-17T10:32:12;5.85;;;5.20;;
8458;SDS011;4266;48.816;9.154;2024-03-17T10:34:38;5.00;;;4.60;;
8458;SDS011;4266;48.816;9.154;2024-03-17T10:37:09;5.70;;;5.20;;
8458;SDS011;4266;48.816;9.154;2024-03-17T10:39:37;5.40;;;5.00;;
8458;SDS011;4266;48.816;9.154;2024-03-17T10:42:03;5.57;;;5.18;;
8458;SDS011;4266;48.816;9.154;2024-03-17T10:44:29;6.53;;;5.55;;
8458;SDS011;4266;48.816;9.154;2024-03-17T10:46:55;5.85;;;5.25;;
8458;SDS011;4266;48.816;9.154;2024-03-17T10:49:21;6.15;;;5.35;;
8458;SDS011;4266;48.816;9.154;2024-03-17T10:51:46;5.70;;;5.28;;
8458;SDS011;4266;48.816;9.154;2024-03-17T10:54:14;5.78;;;5.30;;
8458;SDS011;4266;48.816;9.154;2024-03-17T10:56:38;5.35;;;4.95;;
8458;SDS011;4266;48.816;9.154;2024-03-17T10:59:04;5.68;;;5.28;;
8458;SDS011;4266;48.816;9.154;2024-03-17T11:01:30;9.05;;;5.50;;
8458;SDS011;4266;48.816;9.154;2024-03-17T11:03:55;5.50;;;4.97;;
8458;SDS011;4266;48.816;9.154;2024-03-17T11:06:21;5.55;;;5.07;;
8458;SDS011;4266;48.816;9.154;2024-03-17T11:08:47;5.47;;;5.07;;
8458;SDS011;4266;48.816;9.154;2024-03-17T11:11:12;6.50;;;4.60;;
8458;SDS011;4266;48.816;9.154;2024-03-17T11:13:38;5.03;;;4.50;;
8458;SDS011;4266;48.816;9.154;2024-03-17T11:16:03;5.28;;;4.87;;
8458;SDS011;4266;48.816;9.154;2024-03-17T11:18:33;5.18;;;4.68;;
8458;SDS011;4266;48.816;9.154;2024-03-17T11:20:59;5.70;;;5.20;;
8458;SDS011;4266;48.816;9.154;2024-03-17T11:23:42;5.62;;;5.10;;
8458;SDS011;4266;48.816;9.154;2024-03-17T11:26:07;5.37;;;4.87;;
8458;SDS011;4266;48.816;9.154;2024-03-17T11:33:48;5.22;;;4.70;;
8458;SDS011;4266;48.816;9.154;2024-03-17T11:39:04;7.03;;;6.40;;
8458;SDS011;4266;48.816;9.154;2024-03-17T11:41:37;7.15;;;5.78;;
8458;SDS011;4266;48.816;9.154;2024-03-17T11:46:38;5.62;;;5.22;;
8458;SDS011;4266;48.816;9.154;2024-03-17T11:49:04;7.28;;;6.57;;
8458;SDS011;4266;48.816;9.154;2024-03-17T11:51:30;6.22;;;5.68;;
8458;SDS011;4266;48.816;9.154;2024-03-17T11:53:58;6.47;;;5.97;;
8458;SDS011;4266;48.816;9.154;2024-03-17T11:56:24;5.93;;;5.45;;
8458;SDS011;4266;48.816;9.154;2024-03-17T11:59:03;6.20;;;5.70;;
8458;SDS011;4266;48.816;9.154;2024-03-17T12:01:28;6.62;;;6.10;;
8458;SDS011;4266;48.816;9.154;2024-03-17T12:03:51;7.20;;;6.70;;
8458;SDS011;4266;48.816;9.154;2024-03-17T12:06:17;6.18;;;5.57;;
8458;SDS011;4266;48.816;9.154;2024-03-17T12:08:43;6.90;;;6.30;;
8458;SDS011;4266;48.816;9.154;2024-03-17T12:11:16;6.65;;;5.95;;
8458;SDS011;4266;48.816;9.154;2024-03-17T12:13:41;6.40;;;5.90;;
8458;SDS011;4266;48.816;9.154;2024-03-17T12:16:09;6.93;;;6.40;;
8458;SDS011;4266;48.816;9.154;2024-03-17T12:18:35;6.25;;;5.62;;
8458;SDS011;4266;48.816;9.154;2024-03-17T12:21:01;7.30;;;6.72;;
8458;SDS011;4266;48.816;9.154;2024-03-17T12:23:28;6.37;;;5.75;;
8458;SDS011;4266;48.816;9.154;2024-03-17T12:25:53;6.20;;;5.72;;
8458;SDS011;4266;48.816;9.154;2024-03-17T12:28:20;6.10;;;5.60;;
8458;SDS011;4266;48.816;9.154;2024-03-17T12:30:45;6.03;;;5.57;;
8458;SDS011;4266;48.816;9.154;2024-03-17T12:33:11;6.25;;;5.55;;
8458;SDS011;4266;48.816;9.154;2024-03-17T12:35:38;6.25;;;5.62;;
8458;SDS011;4266;48.816;9.154;2024-03-17T12:38:02;7.35;;;6.62;;
8458;SDS011;4266;48.816;9.154;2024-03-17T12:40:28;6.95;;;6.20;;
8458;SDS011;4266;48.816;9.154;2024-03-17T12:42:54;6.97;;;6.35;;
8458;SDS011;4266;48.816;9.154;2024-03-17T12:45:20;5.53;;;5.12;;
8458;SDS011;4266;48.816;9.154;2024-03-17T12:47:46;7.75;;;6.47;;
8458;SDS011;4266;48.816;9.154;2024-03-17T12:50:11;6.25;;;5.72;;
8458;SDS011;4266;48.816;9.154;2024-03-17T12:52:37;6.20;;;5.70;;
8458;SDS011;4266;48.816;9.154;2024-03-17T12:55:03;6.93;;;6.22;;
8458;SDS011;4266;48.816;9.154;2024-03-17T12:57:36;7.15;;;5.57;;
8458;SDS011;4266;48.816;9.154;2024-03-17T13:00:17;6.93;;;5.20;;
8458;SDS011;4266;48.816;9.154;2024-03-17T13:02:49;6.62;;;5.87;;
8458;SDS011;4266;48.816;9.154;2024-03-17T13:05:17;6.25;;;5.65;;
8458;SDS011;4266;48.816;9.154;2024-03-17T13:07:43;6.47;;;5.95;;
8458;SDS011;4266;48.816;9.154;2024-03-17T13:10:09;5.97;;;5.37;;
8458;SDS011;4266;48.816;9.154;2024-03-17T13:12:35;5.80;;;5.40;;
8458;SDS011;4266;48.816;9.154;2024-03-17T13:15:01;7.82;;;6.03;;
8458;SDS011;4266;48.816;9.154;2024-03-17T13:17:27;6.25;;;5.65;;
8458;SDS011;4266;48.816;9.154;2024-03-17T13:19:55;6.90;;;5.97;;
8458;SDS011;4266;48.816;9.154;2024-03-17T13:22:21;6.22;;;5.65;;
8458;SDS011;4266;48.816;9.154;2024-03-17T13:24:47;6.32;;;5.57;;
8458;SDS011;4266;48.816;9.154;2024-03-17T13:27:12;6.87;;;5.87;;
8458;SDS011;4266;48.816;9.154;2024-03-17T13:29:38;7.18;;;5.97;;
8458;SDS011;4266;48.816;9.154;2024-03-17T13:32:04;7.15;;;5.95;;
8458;SDS011;4266;48.816;9.154;2024-03-17T13:34:30;6.82;;;5.62;;
8458;SDS011;4266;48.816;9.154;2024-03-17T13:36:55;7.45;;;6.75;;
8458;SDS011;4266;48.816;9.154;2024-03-17T13:39:21;6.57;;;5.95;;
8458;SDS011;4266;48.816;9.154;2024-03-17T13:41:47;6.93;;;6.32;;
8458;SDS011;4266;48.816;9.154;2024-03-17T13:44:13;6.82;;;6.22;;
8458;SDS011;4266;48.816;9.154;2024-03-17T13:46:38;6.28;;;5.78;;
8458;SDS011;4266;48.816;9.154;2024-03-17T13:49:06;7.32;;;6.62;;
8458;SDS011;4266;48.816;9.154;2024-03-17T13:51:32;6.40;;;6.00;;
8458;SDS011;4266;48.816;9.154;2024-03-17T13:53:58;6.80;;;6.20;;
8458;SDS011;4266;48.816;9.154;2024-03-17T13:56:24;8.07;;;6.43;;
8458;SDS011;4266;48.816;9.154;2024-03-17T13:58:50;6.62;;;6.12;;
8458;SDS011;4266;48.816;9.154;2024-03-17T14:01:16;8.57;;;6.30;;
8458;SDS011;4266;48.816;9.154;2024-03-17T14:03:41;6.15;;;5.62;;
8458;SDS011;4266;48.816;9.154;2024-03-17T14:06:07;7.45;;;6.75;;
8458;SDS011;4266;48.816;9.154;2024-03-17T14:08:34;9.73;;;8.80;;
8458;SDS011;4266;48.816;9.154;2024-03-17T14:10:59;7.15;;;6.53;;
8458;SDS011;4266;48.816;9.154;2024-03-17T14:13:25;6.78;;;6.10;;
8458;SDS011;4266;48.816;9.154;2024-03-17T14:15:51;7.78;;;6.78;;
8458;SDS011;4266;48.816;9.154;2024-03-17T14:18:16;9.35;;;6.25;;
8458;SDS011;4266;48.816;9.154;2024-03-17T14:20:42;6.60;;;6.03;;
8458;SDS011;4266;48.816;9.154;2024-03-17T14:23:15;7.43;;;6.07;;
8458;SDS011;4266;48.816;9.154;2024-03-17T14:25:41;6.30;;;5.75;;
8458;SDS011;4266;48.816;9.154;2024-03-17T14:28:07;6.50;;;5.97;;
8458;SDS011;4266;48.816;9.154;2024-03-17T14:30:33;6.60;;;6.00;;
8458;SDS011;4266;48.816;9.154;2024-03-17T14:32:59;6.70;;;6.03;;
8458;SDS011;4266;48.816;9.154;2024-03-17T14:35:25;7.00;;;6.37;;
8458;SDS011;4266;48.816;9.154;2024-03-17T14:37:52;8.00;;;7.18;;
8458;SDS011;4266;48.816;9.154;2024-03-17T14:40:18;6.28;;;5.78;;
8458;SDS011;4266;48.816;9.154;2024-03-17T14:42:47;6.18;;;5.68;;
8458;SDS011;4266;48.816;9.154;2024-03-17T14:45:13;6.37;;;5.85;;
8458;SDS011;4266;48.816;9.154;2024-03-17T14:47:39;7.55;;;5.70;;
8458;SDS011;4266;48.816;9.154;2024-03-17T14:50:06;6.82;;;6.12;;
8458;SDS011;4266;48.816;9.154;2024-03-17T14:52:32;8.90;;;5.30;;
8458;SDS011;4266;48.816;9.154;2024-03-17T14:54:58;6.28;;;5.68;;
8458;SDS011;4266;48.816;9.154;2024-03-17T14:57:24;6.05;;;5.50;;
8458;SDS011;4266;48.816;9.154;2024-03-17T14:59:50;10.35;;;6.90;;
8458;SDS011;4266;48.816;9.154;2024-03-17T15:02:16;6.35;;;5.30;;
8458;SDS011;4266;48.816;9.154;2024-03-17T15:04:41;6.68;;;6.07;;
8458;SDS011;4266;48.816;9.154;2024-03-17T15:07:07;7.78;;;7.03;;
8458;SDS011;4266;48.816;9.154;2024-03-17T15:09:33;7.25;;;6.18;;
8458;SDS011;4266;48.816;9.154;2024-03-17T15:11:58;6.97;;;6.18;;
8458;SDS011;4266;48.816;9.154;2024-03-17T15:14:24;6.18;;;5.57;;
8458;SDS011;4266;48.816;9.154;2024-03-17T15:16:50;5.62;;;5.22;;
8458;SDS011;4266;48.816;9.154;2024-03-17T15:19:16;6.60;;;5.53;;